Time;durP1;ratioP1;P1;durP2;ratioP2;P2;SDS_P1;SDS_P2;PMS_P1;PMS_P2;Temp;Humidity;BMP_temperature;BMP_pressure;BME280_temperature;BME280_humidity;BME280_pressure;Samples;Min_cycle;Max_cycle;Signal;HPM_P1;HPM_P2
2022/06/11 00:05:43;;;;;;;16.17;14.25;;;;;;;15.71;100.00;99539.08;4181649;83;21013;-86
2022/06/11 00:11:46;;;;;;;16.97;12.63;;;;;;;15.73;100.00;99539.48;4125329;85;21594;-86
2022/06/11 00:17:47;;;;;;;22.00;13.10;;;;;;;15.75;100.00;99530.80;4120805;84;22369;-87
2022/06/11 00:23:49;;;;;;;21.57;13.45;;;;;;;15.77;100.00;99524.30;4199434;83;22016;-86
2022/06/11 00:29:52;;;;;;;21.85;15.32;;;;;;;15.75;100.00;99517.00;4194735;83;21082;-86
2022/06/11 00:35:53;;;;;;;19.37;16.35;;;;;;;15.57;100.00;99510.11;4167641;83;21069;-87
2022/06/11 00:42:00;;;;;;;19.45;13.93;;;;;;;15.58;100.00;99519.38;4178970;83;21510;-86
2022/06/11 00:48:18;;;;;;;19.80;14.83;;;;;;;15.49;100.00;99530.61;4263872;82;21275;-87
2022/06/11 01:07:29;;;;;;;17.80;12.63;;;;;;;15.15;100.00;99543.17;4122096;85;21488;-86
2022/06/11 01:21:19;;;;;;;15.50;10.63;;;;;;;14.90;100.00;99541.75;4144468;84;21685;-85
2022/06/11 01:27:29;;;;;;;17.82;14.00;;;;;;;14.95;100.00;99539.20;4148516;84;21044;-86
2022/06/11 01:33:39;;;;;;;16.90;11.43;;;;;;;14.91;100.00;99539.19;4148562;84;21033;-86
2022/06/11 01:40:00;;;;;;;17.12;12.82;;;;;;;14.79;100.00;99530.49;4154535;83;21048;-86
2022/06/11 01:46:07;;;;;;;18.70;14.47;;;;;;;14.57;100.00;99532.98;4142266;85;21104;-86
2022/06/11 01:52:31;;;;;;;18.82;13.80;;;;;;;14.47;100.00;99541.40;4113155;85;22129;-86
2022/06/11 01:59:30;;;;;;;17.00;13.55;;;;;;;14.41;100.00;99536.06;4276442;83;21050;-86
2022/06/11 02:13:12;;;;;;;16.65;12.00;;;;;;;14.33;100.00;99535.83;4282824;82;21375;-85
2022/06/11 02:26:57;;;;;;;14.65;12.15;;;;;;;14.54;100.00;99548.91;4269348;82;21022;-85
2022/06/11 02:33:18;;;;;;;17.40;11.75;;;;;;;14.44;100.00;99553.80;4280197;82;21059;-86
2022/06/11 02:39:24;;;;;;;16.90;11.48;;;;;;;14.29;100.00;99561.20;4260302;81;92967;-86
2022/06/11 02:45:40;;;;;;;19.45;12.65;;;;;;;14.19;100.00;99565.44;4085858;86;21043;-85
2022/06/11 02:51:43;;;;;;;19.32;13.75;;;;;;;14.29;100.00;99565.91;4041360;85;21027;-84
2022/06/11 02:57:44;;;;;;;15.88;13.05;;;;;;;14.23;100.00;99576.48;4041166;86;22334;-85
2022/06/11 03:03:49;;;;;;;17.05;12.23;;;;;;;14.15;100.00;99579.78;4047521;86;21103;-85
2022/06/11 03:10:03;;;;;;;14.30;10.60;;;;;;;14.08;100.00;99581.11;4057115;86;21160;-85
2022/06/11 03:16:06;;;;;;;16.48;12.93;;;;;;;14.22;100.00;99575.49;4058246;86;21091;-85
2022/06/11 03:22:08;;;;;;;18.80;12.58;;;;;;;14.27;100.00;99580.67;4077725;86;21060;-85
2022/06/11 03:28:18;;;;;;;16.75;13.18;;;;;;;14.18;100.00;99570.75;4150938;83;21139;-86
2022/06/11 03:34:20;;;;;;;18.12;12.33;;;;;;;14.13;100.00;99568.36;4147614;83;21469;-86
2022/06/11 03:40:21;;;;;;;16.20;12.07;;;;;;;14.18;100.00;99566.63;4157848;83;21013;-86
2022/06/11 03:46:23;;;;;;;16.35;13.22;;;;;;;14.29;100.00;99574.17;4162348;83;22117;-87
2022/06/11 03:52:27;;;;;;;16.77;12.37;;;;;;;14.44;100.00;99584.10;4182104;83;20991;-86
2022/06/11 03:58:57;;;;;;;14.15;11.88;;;;;;;14.50;100.00;99575.05;4173696;83;21454;-86
2022/06/11 04:05:37;;;;;;;17.30;12.75;;;;;;;14.57;100.00;99574.30;4116468;84;21536;-85
2022/06/11 04:12:22;;;;;;;;;;;;;;;;;;;;;
2022/06/11 04:19:17;;;;;;;15.58;13.00;;;;;;;14.94;100.00;99576.23;4120914;84;21126;-87
2022/06/11 04:25:24;;;;;;;17.82;14.18;;;;;;;15.16;100.00;99580.01;4123145;85;21113;-86
2022/06/11 04:31:27;;;;;;;18.80;14.63;;;;;;;15.28;100.00;99576.89;4121470;85;21127;-86
2022/06/11 04:44:34;;;;;;;18.95;15.45;;;;;;;15.52;100.00;99572.59;4178546;83;21571;-85
2022/06/11 04:50:38;;;;;;;21.82;16.25;;;;;;;15.63;100.00;99567.86;4183643;83;21049;-85
2022/06/11 04:56:40;;;;;;;22.17;16.48;;;;;;;15.76;100.00;99568.25;4175826;83;21039;-86
2022/06/11 05:02:43;;;;;;;20.17;15.53;;;;;;;15.88;100.00;99575.53;4175049;83;21056;-86
2022/06/11 05:09:15;;;;;;;17.17;13.90;;;;;;;16.03;100.00;99574.34;4195246;85;21542;-86
2022/06/11 05:28:21;;;;;;;8.70;6.90;;;;;;;16.32;100.00;99587.52;4087420;85;21087;-86
2022/06/11 05:34:22;;;;;;;8.25;5.15;;;;;;;16.51;100.00;99590.63;4176169;84;21011;-86
2022/06/11 05:40:29;;;;;;;8.05;6.40;;;;;;;16.68;100.00;99598.07;4170167;83;22012;-85
2022/06/11 05:46:32;;;;;;;6.75;4.83;;;;;;;16.80;100.00;99599.00;4161057;83;21028;-85
2022/06/11 05:52:38;;;;;;;7.65;5.70;;;;;;;16.93;100.00;99600.13;4112846;84;21608;-87
2022/06/11 05:58:47;;;;;;;9.27;6.77;;;;;;;17.06;100.00;99600.46;4101319;85;21068;-86
2022/06/11 06:04:49;;;;;;;7.03;5.03;;;;;;;17.16;100.00;99605.16;4103062;85;22079;-87
2022/06/11 06:10:51;;;;;;;7.95;5.37;;;;;;;17.29;100.00;99613.78;4110429;85;21579;-87
2022/06/11 06:16:52;;;;;;;7.95;4.72;;;;;;;17.38;100.00;99608.58;4114947;85;21060;-88
2022/06/11 06:22:54;;;;;;;4.47;4.08;;;;;;;17.54;100.00;99603.37;4009732;86;21154;-86
2022/06/11 06:28:56;;;;;;;7.15;4.90;;;;;;;17.68;100.00;99615.72;4112537;85;21095;-86
2022/06/11 06:34:57;;;;;;;5.28;4.78;;;;;;;17.82;100.00;99612.22;4106552;85;21557;-86
2022/06/11 06:40:59;;;;;;;5.70;4.60;;;;;;;18.01;100.00;99622.74;4103471;85;21427;-87
2022/06/11 06:47:01;;;;;;;4.45;3.67;;;;;;;18.14;99.60;99623.02;4115683;84;20994;-86
2022/06/11 06:53:03;;;;;;;4.55;3.22;;;;;;;18.25;99.02;99620.34;4130356;84;21716;-86
2022/06/11 06:59:05;;;;;;;3.27;2.50;;;;;;;18.40;97.85;99616.88;4132680;85;21056;-87
2022/06/11 07:05:09;;;;;;;3.98;2.60;;;;;;;18.84;97.73;99616.73;4136475;84;21033;-86
2022/06/11 07:11:39;;;;;;;3.20;2.20;;;;;;;19.20;96.53;99622.63;4148592;84;21994;-86
2022/06/11 07:18:03;;;;;;;3.25;2.70;;;;;;;19.19;95.52;99623.82;4152858;85;20996;-86
2022/06/11 07:24:13;;;;;;;3.60;2.15;;;;;;;19.44;94.96;99619.53;4134113;84;21123;-85
2022/06/11 07:30:20;;;;;;;3.35;1.98;;;;;;;20.07;93.47;99614.95;4135737;84;21079;-86
2022/06/11 07:36:22;;;;;;;2.30;1.50;;;;;;;19.90;91.70;99625.77;4130423;84;21080;-86
2022/06/11 07:42:24;;;;;;;2.85;2.02;;;;;;;19.71;91.49;99619.52;4134287;84;22027;-86
2022/06/11 07:48:26;;;;;;;1.65;1.55;;;;;;;20.32;90.56;99629.22;4154816;83;21023;-86
2022/06/11 07:54:28;;;;;;;2.95;1.50;;;;;;;21.13;88.81;99625.64;4175746;83;21028;-85
2022/06/11 08:00:37;;;;;;;2.37;1.30;;;;;;;21.51;86.53;99625.98;4167992;83;21059;-87
2022/06/11 08:06:38;;;;;;;2.42;1.90;;;;;;;21.77;84.29;99625.63;4169375;83;21542;-86
2022/06/11 08:12:40;;;;;;;3.05;1.82;;;;;;;21.87;78.71;99626.75;4178375;84;21776;-85
2022/06/11 08:18:42;;;;;;;3.37;1.60;;;;;;;21.24;81.27;99625.40;4178329;83;21029;-86
2022/06/11 08:24:44;;;;;;;2.20;1.65;;;;;;;21.45;80.00;99625.73;4170719;83;22041;-87
2022/06/11 08:30:46;;;;;;;2.33;1.67;;;;;;;21.88;78.58;99617.79;4172832;83;20989;-86
2022/06/11 08:36:47;;;;;;;2.95;1.60;;;;;;;21.81;77.52;99612.37;4172642;83;22073;-87
2022/06/11 08:43:06;;;;;;;2.52;2.10;;;;;;;21.31;77.12;99614.88;4174445;84;21064;-86
2022/06/11 08:49:29;;;;;;;3.55;1.70;;;;;;;21.18;76.49;99611.81;4148842;84;21875;-86
2022/06/11 08:55:37;;;;;;;1.55;1.40;;;;;;;21.45;75.67;99606.23;4134561;84;21025;-87
2022/06/11 09:02:09;;;;;;;1.52;1.35;;;;;;;21.26;74.16;99609.05;4137067;84;21111;-87
2022/06/11 09:08:33;;;;;;;1.98;1.35;;;;;;;21.46;73.42;99605.01;4130911;84;20993;-87
2022/06/11 09:15:10;;;;;;;1.30;1.15;;;;;;;21.93;73.00;99599.13;4124838;84;21732;-88
2022/06/11 09:21:56;;;;;;;3.47;1.43;;;;;;;22.21;71.71;99589.42;4137789;84;21053;-87
2022/06/11 09:28:37;;;;;;;3.47;1.40;;;;;;;22.51;71.13;99591.00;4130862;84;21710;-87
2022/06/11 09:34:44;;;;;;;1.27;0.98;;;;;;;22.94;69.06;99585.19;4132119;85;21115;-87
2022/06/11 09:40:52;;;;;;;6.12;1.32;;;;;;;23.28;68.06;99573.44;4133414;84;21567;-86
2022/06/11 09:47:14;;;;;;;2.12;1.30;;;;;;;23.83;68.21;99577.64;4133371;84;21084;-87
2022/06/11 09:53:36;;;;;;;1.32;0.88;;;;;;;24.15;68.33;99563.41;4128819;84;21052;-87
2022/06/11 09:59:44;;;;;;;2.33;0.80;;;;;;;24.46;65.98;99571.28;4131831;84;21013;-87
2022/06/11 10:06:09;;;;;;;2.70;0.80;;;;;;;24.56;63.92;99561.09;4127880;84;21023;-87
2022/06/11 10:12:25;;;;;;;3.02;0.68;;;;;;;24.58;62.74;99554.42;4131718;84;21537;-86
2022/06/11 10:18:31;;;;;;;2.08;0.60;;;;;;;24.76;61.41;99555.81;4122862;84;22261;-88
2022/06/11 10:24:35;;;;;;;4.08;0.95;;;;;;;25.09;60.14;99556.30;4123309;85;21052;-86
2022/06/11 10:30:51;;;;;;;3.37;0.60;;;;;;;25.47;56.23;99540.62;4129488;84;20995;-87
2022/06/11 10:37:17;;;;;;;1.12;0.85;;;;;;;25.71;57.79;99538.22;4104867;85;22320;-87
2022/06/11 10:43:41;;;;;;;0.72;0.60;;;;;;;26.04;56.50;99541.26;4119793;84;21090;-87
2022/06/11 10:49:52;;;;;;;2.95;0.72;;;;;;;26.40;55.59;99532.84;4007697;83;10000276;-85
2022/06/11 10:56:14;;;;;;;1.80;1.10;;;;;;;26.28;51.72;99544.23;4106059;85;21987;-86
2022/06/11 11:02:27;;;;;;;3.90;1.00;;;;;;;26.12;52.38;99534.09;3958489;88;21137;-86
2022/06/11 11:08:29;;;;;;;2.65;0.85;;;;;;;26.40;51.24;99528.64;4128201;84;21078;-88
2022/06/11 11:14:41;;;;;;;1.07;0.65;;;;;;;26.67;51.87;99528.61;4129152;84;21085;-87
2022/06/11 11:20:45;;;;;;;0.95;0.60;;;;;;;27.30;50.99;99521.44;4123545;84;21073;-87
2022/06/11 11:27:00;;;;;;;2.80;0.90;;;;;;;27.40;49.59;99527.17;4125748;85;21130;-86
2022/06/11 11:33:25;;;;;;;3.00;1.02;;;;;;;27.53;48.26;99522.09;4125069;85;21563;-87
2022/06/11 11:39:31;;;;;;;1.87;0.83;;;;;;;27.83;45.85;99529.28;4119952;85;21019;-87
2022/06/11 11:45:49;;;;;;;1.12;0.78;;;;;;;27.88;46.91;99521.63;4130643;85;21674;-87
2022/06/11 11:51:52;;;;;;;1.60;0.88;;;;;;;28.27;46.77;99506.30;4127488;85;21015;-87
2022/06/11 11:58:01;;;;;;;1.50;0.90;;;;;;;28.22;46.67;99511.19;4136369;84;21617;-88
2022/06/11 12:04:19;;;;;;;2.85;0.90;;;;;;;28.10;45.48;99513.00;4111886;85;21085;-87
2022/06/11 12:10:37;;;;;;;1.37;1.02;;;;;;;27.55;45.56;99509.75;4028971;86;21436;-86
2022/06/11 12:16:53;;;;;;;3.55;1.05;;;;;;;27.01;43.35;99507.17;4121516;85;21685;-88
2022/06/11 12:23:33;;;;;;;2.75;1.20;;;;;;;26.41;43.59;99499.31;4125040;85;21593;-87
2022/06/11 12:29:43;;;;;;;1.70;1.02;;;;;;;25.56;44.35;99495.82;4124279;85;21786;-85
2022/06/11 12:35:56;;;;;;;2.87;1.75;;;;;;;25.41;44.63;99497.63;4125611;84;21262;-87
2022/06/11 12:42:17;;;;;;;2.02;1.35;;;;;;;25.37;43.21;99508.98;4117082;85;22437;-87
2022/06/11 12:48:49;;;;;;;4.00;1.25;;;;;;;25.11;43.45;99504.02;4122005;84;21131;-87
2022/06/11 12:55:38;;;;;;;3.12;1.40;;;;;;;24.91;44.42;99501.61;4121418;84;21637;-87
2022/06/11 13:02:15;;;;;;;1.90;1.27;;;;;;;24.91;44.53;99509.22;4130191;84;21048;-86
2022/06/11 13:08:41;;;;;;;3.15;1.40;;;;;;;24.61;45.63;99501.73;4015880;86;22064;-87
2022/06/11 13:14:51;;;;;;;3.25;1.25;;;;;;;24.42;45.43;99502.84;4128798;85;21048;-85
2022/06/11 13:21:31;;;;;;;1.60;1.50;;;;;;;24.09;45.50;99501.65;4127012;84;21017;-86
2022/06/11 13:27:47;;;;;;;2.95;1.30;;;;;;;23.79;46.21;99493.89;4116582;84;21013;-86
2022/06/11 13:34:21;;;;;;;1.70;1.10;;;;;;;23.79;46.21;99493.89;4126696;84;21061;-86
2022/06/11 13:40:40;;;;;;;1.77;1.50;;;;;;;23.89;46.21;99491.35;4121962;83;21052;-88
2022/06/11 13:47:06;;;;;;;3.15;1.67;;;;;;;24.01;45.51;99505.92;4124662;84;21342;-86
2022/06/11 14:00:00;;;;;;;1.95;1.45;;;;;;;24.19;45.65;99489.31;4127246;84;20956;-87
2022/06/11 14:06:04;;;;;;;2.00;1.45;;;;;;;24.06;45.50;99495.56;4130595;84;21064;-87
2022/06/11 14:12:45;;;;;;;1.90;1.67;;;;;;;24.04;45.68;99484.05;4126916;84;21116;-86
2022/06/11 14:18:47;;;;;;;2.22;1.50;;;;;;;23.94;45.46;99481.00;4125934;84;21102;-87
2022/06/11 14:24:54;;;;;;;3.70;1.42;;;;;;;23.60;45.63;99475.37;4128202;84;21112;-88
2022/06/11 14:31:03;;;;;;;2.60;1.52;;;;;;;23.75;45.79;99475.68;4124012;84;21578;-88
2022/06/11 14:37:24;;;;;;;1.92;1.47;;;;;;;23.89;45.87;99465.40;4127192;84;21498;-86
2022/06/11 14:43:29;;;;;;;3.15;1.50;;;;;;;23.93;45.33;99464.03;4124471;84;21043;-87
2022/06/11 14:49:43;;;;;;;2.05;1.20;;;;;;;23.79;45.92;99457.55;4110612;84;21613;-87
2022/06/11 14:55:46;;;;;;;2.40;1.30;;;;;;;23.79;44.92;99462.38;4134795;84;21616;-87
2022/06/11 15:02:23;;;;;;;1.80;1.22;;;;;;;23.82;45.19;99451.69;4128414;83;21033;-87
2022/06/11 15:08:36;;;;;;;1.60;1.15;;;;;;;23.85;44.59;99444.55;4128852;84;22168;-85
2022/06/11 15:14:56;;;;;;;5.78;2.10;;;;;;;23.91;44.75;99432.19;4126511;84;21021;-88
2022/06/11 15:21:02;;;;;;;21.25;15.35;;;;;;;23.89;45.36;99427.05;3986484;87;21537;-87
2022/06/11 15:27:06;;;;;;;4.15;2.35;;;;;;;23.78;44.71;99426.64;4012389;86;21074;-86
2022/06/11 15:33:17;;;;;;;3.67;1.50;;;;;;;23.64;44.29;99425.75;4049981;86;21521;-86
2022/06/11 15:39:19;;;;;;;2.98;1.40;;;;;;;23.46;44.34;99431.15;4048017;86;21037;-85
2022/06/11 15:45:29;;;;;;;2.10;1.45;;;;;;;23.34;44.42;99435.37;4006281;86;22012;-85
2022/06/11 15:51:32;;;;;;;1.77;0.90;;;;;;;23.23;44.42;99430.11;3973970;86;21155;-85
2022/06/11 15:57:33;;;;;;;2.95;1.37;;;;;;;23.09;44.43;99428.58;3943933;88;21035;-85
2022/06/11 16:03:47;;;;;;;1.85;1.15;;;;;;;23.01;44.54;99439.02;4059697;86;21160;-86
2022/06/11 16:09:48;;;;;;;2.20;1.20;;;;;;;22.97;44.80;99432.77;4055279;86;21023;-86
2022/06/11 16:15:51;;;;;;;3.20;1.12;;;;;;;22.92;44.71;99431.94;4062510;86;21032;-85
2022/06/11 16:22:04;;;;;;;1.98;1.07;;;;;;;22.90;44.39;99437.17;4053575;86;21038;-87
2022/06/11 16:28:09;;;;;;;4.05;1.32;;;;;;;22.80;44.88;99431.33;4058500;86;21134;-86
2022/06/11 16:34:16;;;;;;;2.00;1.27;;;;;;;22.75;44.96;99432.67;4055548;86;21058;-85
2022/06/11 16:40:39;;;;;;;4.22;2.45;;;;;;;22.71;45.54;99429.19;4058331;86;21162;-85
2022/06/11 16:46:40;;;;;;;6.72;2.35;;;;;;;22.61;45.96;99430.92;4054981;86;21079;-86
2022/06/11 16:59:19;;;;;;;2.95;1.20;;;;;;;22.49;45.84;99440.80;4180543;83;21015;-87
2022/06/11 17:05:21;;;;;;;5.40;1.55;;;;;;;22.44;45.92;99446.92;4146401;83;20992;-86
2022/06/11 17:11:23;;;;;;;4.50;3.02;;;;;;;22.38;46.13;99443.75;4179238;83;21031;-86
2022/06/11 17:17:36;;;;;;;2.65;0.78;;;;;;;22.22;46.48;99446.00;4167776;83;21054;-86
2022/06/11 17:23:57;;;;;;;3.35;1.12;;;;;;;22.08;46.64;99439.41;4181046;83;21023;-87
2022/06/11 17:29:58;;;;;;;4.72;1.62;;;;;;;21.95;46.70;99437.81;4175568;83;21547;-86
2022/06/11 17:36:00;;;;;;;2.80;1.00;;;;;;;21.91;46.74;99453.86;4149814;83;21079;-86
2022/06/11 17:42:03;;;;;;;2.55;0.95;;;;;;;21.84;46.91;99454.83;4172674;83;21008;-86
2022/06/11 17:48:05;;;;;;;2.42;1.10;;;;;;;21.77;47.12;99455.64;4175568;83;21056;-87
2022/06/11 17:54:11;;;;;;;4.15;1.60;;;;;;;21.61;47.59;99466.94;4125954;84;21550;-86
2022/06/11 18:00:17;;;;;;;2.60;1.20;;;;;;;21.48;47.90;99467.49;4126799;84;21060;-86
2022/06/11 18:06:18;;;;;;;3.10;1.40;;;;;;;21.37;48.12;99472.55;4122546;84;21062;-86
2022/06/11 18:12:19;;;;;;;2.00;1.37;;;;;;;21.24;48.35;99471.67;4119497;84;21033;-86
2022/06/11 18:18:34;;;;;;;2.77;2.05;;;;;;;21.09;48.75;99480.20;4127214;84;21053;-86
2022/06/11 18:30:56;;;;;;;3.85;1.65;;;;;;;20.71;50.22;99499.11;4130389;84;21992;-86
2022/06/11 18:36:58;;;;;;;2.15;1.40;;;;;;;20.47;50.54;99505.37;4123418;84;21142;-87
2022/06/11 18:43:04;;;;;;;5.53;1.67;;;;;;;20.26;50.96;99510.00;4117826;84;20992;-86
2022/06/11 18:49:05;;;;;;;4.78;2.20;;;;;;;20.06;51.34;99517.51;4125489;83;21043;-87
2022/06/11 18:55:09;;;;;;;4.20;1.98;;;;;;;19.88;52.06;99525.37;4115778;84;21100;-86
2022/06/11 19:01:10;;;;;;;4.60;1.75;;;;;;;19.70;52.47;99543.73;4098789;84;21028;-87
2022/06/11 19:07:12;;;;;;;4.70;2.12;;;;;;;19.55;53.54;99552.72;4125987;84;21493;-86
2022/06/11 19:13:13;;;;;;;6.53;2.00;;;;;;;19.37;53.78;99553.61;4122488;84;21075;-87
2022/06/11 19:19:14;;;;;;;4.30;2.17;;;;;;;19.21;54.20;99558.98;4120309;84;21088;-86
2022/06/11 19:25:18;;;;;;;5.37;2.37;;;;;;;19.02;54.67;99566.58;4123366;84;21115;-86
2022/06/11 19:31:21;;;;;;;5.90;2.83;;;;;;;18.77;55.12;99572.46;4126642;84;21054;-86
2022/06/11 19:37:22;;;;;;;7.15;3.55;;;;;;;18.53;55.70;99577.11;4129082;84;21011;-86
2022/06/11 19:43:28;;;;;;;9.20;3.98;;;;;;;18.31;56.22;99575.74;4115400;84;21079;-86
2022/06/11 19:49:29;;;;;;;12.93;6.60;;;;;;;18.06;56.76;99575.80;4120286;84;21057;-86
2022/06/11 19:55:33;;;;;;;9.20;5.95;;;;;;;17.84;57.42;99577.98;4135596;84;21186;-86
2022/06/11 20:01:35;;;;;;;11.20;6.55;;;;;;;17.59;58.18;99575.23;4125623;84;21081;-86
2022/06/11 20:07:37;;;;;;;9.25;5.12;;;;;;;17.34;59.06;99574.00;4136694;84;21543;-86
2022/06/11 20:13:41;;;;;;;10.25;5.15;;;;;;;17.14;59.98;99572.37;4137406;84;22385;-86
2022/06/11 20:19:42;;;;;;;12.10;5.22;;;;;;;17.00;60.71;99580.75;4132688;84;21084;-86
2022/06/11 20:25:44;;;;;;;9.38;5.20;;;;;;;16.82;61.46;99581.42;4131776;84;21004;-86
2022/06/11 20:31:46;;;;;;;7.03;4.90;;;;;;;16.68;62.18;99580.10;4134085;84;21084;-86
2022/06/11 20:37:48;;;;;;;10.10;5.10;;;;;;;16.52;63.10;99583.14;4135497;84;21977;-86
2022/06/11 20:43:50;;;;;;;11.68;5.80;;;;;;;16.32;63.72;99590.28;4138459;84;21678;-86
2022/06/11 20:49:52;;;;;;;13.65;5.87;;;;;;;16.15;64.39;99584.97;4124480;84;21063;-86
2022/06/11 20:55:53;;;;;;;9.58;5.60;;;;;;;15.98;64.77;99584.41;4109387;85;21047;-86
2022/06/11 21:01:55;;;;;;;14.70;7.20;;;;;;;15.90;65.70;99581.45;4103288;85;21027;-86
2022/06/11 21:14:15;;;;;;;9.48;6.72;;;;;;;15.57;67.08;99593.69;4102784;83;21063;-86
2022/06/11 21:20:22;;;;;;;12.70;6.03;;;;;;;15.38;68.21;99591.88;4105922;85;21098;-86
2022/06/11 21:26:24;;;;;;;8.70;5.83;;;;;;;15.28;68.35;99598.16;4101316;85;21863;-86
2022/06/11 21:32:28;;;;;;;11.22;6.15;;;;;;;15.09;69.21;99608.96;4105530;85;21082;-86
2022/06/11 21:38:29;;;;;;;10.78;6.72;;;;;;;14.91;69.41;99600.44;4103993;85;21110;-85
2022/06/11 21:44:35;;;;;;;21.95;8.05;;;;;;;14.71;69.83;99597.20;4107446;85;21612;-86
2022/06/11 21:50:36;;;;;;;17.48;6.70;;;;;;;14.47;70.26;99593.73;4106069;84;21031;-85
2022/06/11 21:56:38;;;;;;;12.53;6.30;;;;;;;14.28;70.88;99591.88;4132231;84;21053;-85
2022/06/11 22:02:39;;;;;;;10.20;6.67;;;;;;;14.31;72.23;99585.59;4136535;84;21072;-86
2022/06/11 22:08:40;;;;;;;12.85;5.85;;;;;;;14.34;72.92;99595.27;4126851;84;21143;-86
2022/06/11 22:14:42;;;;;;;10.18;6.53;;;;;;;14.26;72.89;99589.51;4129019;83;21037;-85
2022/06/11 22:20:44;;;;;;;14.60;6.80;;;;;;;14.11;73.15;99591.34;4137793;84;20997;-85
2022/06/11 22:26:46;;;;;;;7.25;5.60;;;;;;;13.89;73.62;99587.48;4135477;84;20957;-86
2022/06/11 22:32:48;;;;;;;12.07;6.70;;;;;;;13.81;74.19;99595.47;4131703;84;21044;-85
2022/06/11 22:38:49;;;;;;;11.05;7.50;;;;;;;13.73;74.71;99595.98;4138943;84;21064;-85
2022/06/11 22:44:51;;;;;;;20.05;9.00;;;;;;;13.63;75.13;99594.52;4137574;84;21926;-85
2022/06/11 22:50:53;;;;;;;9.30;6.03;;;;;;;13.56;75.43;99593.11;4132144;84;21099;-85
2022/06/11 22:56:55;;;;;;;14.85;6.95;;;;;;;13.45;76.29;99592.22;4125367;84;21012;-85
2022/06/11 23:03:03;;;;;;;12.05;7.53;;;;;;;13.31;76.40;99589.34;4131011;84;21525;-85
2022/06/11 23:09:05;;;;;;;12.78;6.67;;;;;;;13.17;76.61;99580.95;4126255;84;21485;-86
2022/06/11 23:15:08;;;;;;;12.37;5.40;;;;;;;13.07;77.25;99583.80;4132022;84;21042;-86
2022/06/11 23:21:11;;;;;;;10.23;5.75;;;;;;;13.19;78.43;99586.84;4129922;84;21041;-85
2022/06/11 23:27:12;;;;;;;10.45;6.78;;;;;;;13.31;78.85;99587.36;4126215;84;21093;-85
2022/06/11 23:33:14;;;;;;;11.63;6.33;;;;;;;13.29;78.30;99599.91;4111965;84;21151;-85
2022/06/11 23:39:15;;;;;;;8.50;5.90;;;;;;;13.12;78.65;99596.41;4127292;84;21053;-85
2022/06/11 23:51:39;;;;;;;7.60;5.90;;;;;;;12.84;79.19;99594.70;4135718;83;21425;-85
2022/06/11 23:57:41;;;;;;;11.20;6.15;;;;;;;12.70;79.96;99598.65;4171465;83;21043;-86
